Weather observations for the past three days for
Crockett, Houston County Airport
Metric (Imperial)
Date Time (cdt) Wind (kph) Vis. (km) Weather Sky Cond. Temperature (ºC) Relative Humidity Wind Chill (°C) Heat Index (°C) Pressure Precipitation (cm)
Air Dwpt 6 hour altimeter (cm) sea level (mb) 1 hr 3 hr 6 hr
Max. Min.
07 06:55 N 13 16.09 Overcast OVC019 14 12 88% 76.3 0.0
07 06:35 N 11 16.09 Overcast OVC018 14 12 88% 76.28 0.0
07 05:55 N 9 16.09 Overcast OVC018 14 12 88% 76.23 0.0
07 05:35 Vrbl 7 16.09 Overcast OVC016 14 12 88% 76.25 0.0
07 05:15 N 9 16.09 Overcast OVC015 14 12 88% 76.2 0.0
07 04:55 Vrbl 11 16.09 Overcast OVC013 14 13 94% 76.15 0.0
07 04:35 N 15 16.09 Overcast OVC012 14 13 94% 76.15 0.0
07 04:15 NE 9 16.09 Mostly Cloudy BKN012 14 13 94% 76.1 0.0
07 03:55 NE 17 16.09 Mostly Cloudy BKN012 BKN020 14 13 94% 76.07 0.0
07 03:35 NE 15 16.09 Mostly Cloudy BKN010 BKN020 14 13 94% 76.1 0.0
07 03:15 N 15 16.09 Partly Cloudy SCT009 14 14 100% 76.12 0.0
07 02:55 N 20 G 30 16.09 Partly Cloudy SCT009 14 14 100% 76.15 0.0
07 02:35 NE 13 16.09 Fair CLR 14 14 100% 76.15 0.0
07 02:15 N 13 G 24 14.48 A Few Clouds FEW009 14 14 100% 76.17 0.0
07 01:55 N 17 16.09 A Few Clouds FEW009 15 15 100% 76.17 0.0
07 01:35 N 15 G 26 14.48 Partly Cloudy SCT010 15 15 100% 76.15 0.0
07 01:15 N 9 G 22 16.09 Overcast BKN010 OVC014 16 15 94% 76.2 0.0
07 00:55 N 19 16.09 Mostly Cloudy BKN009 16 16 100% 76.17 0.0
07 00:35 N 17 16.09 Mostly Cloudy BKN009 16 16 100% 76.15 0.0
07 00:15 N 17 16.09 Mostly Cloudy BKN010 16 16 100% 76.15 0.0
06 23:35 N 11 12.87 A Few Clouds FEW009 17 17 100% 76.12 0.0
06 23:15 N 9 16.09 Mostly Cloudy BKN009 17 17 100% 76.15 0.0
06 22:55 Vrbl 7 G 19 16.09 Overcast OVC010 17 17 100% 76.12 0.0
06 22:35 N 13 16.09 Overcast OVC010 17 17 100% 76.1 0.0
06 22:15 N 13 16.09 Overcast OVC010 17 17 100% 76.07 0.0
06 21:55 N 11 14.48 Overcast OVC010 17 17 100% 76.05 0.0
06 21:35 Vrbl 9 12.87 Overcast OVC011 17 17 100% 76 0.0
06 20:55 N 13 16.09 Overcast OVC012 17 16 94% 75.97 0.0
06 20:35 N 13 16.09 Overcast OVC012 18 16 88% 75.95 0.0
06 20:15 N 11 16.09 Overcast OVC013 18 16 88% 75.92 0.0
06 19:55 N 13 16.09 Mostly Cloudy BKN014 18 16 88% 75.9 0.0
06 19:35 N 9 14.48 Fair CLR 18 17 94% 75.9 0.0
06 19:15 NW 13 16.09 Fair CLR 19 17 88% 75.87 0.0
06 18:55 N 13 16.09 Fair CLR 20 17 83% 75.84 0.0
06 18:35 N 13 G 22 16.09 Fair CLR 21 17 78% 75.82 0.0
06 18:15 N 11 G 22 14.48 Fair CLR 21 18 83% 75.82 0.0
06 17:55 N 15 G 24 16.09 Fair CLR 22 19 83% 75.79 0.0
06 17:35 NW 13 16.09 Fair CLR 22 19 83% 75.79 0.0
06 17:15 NW 11 16.09 Fair CLR 23 20 83% 75.77 0.0
06 16:55 NW 11 16.09 Fair CLR 23 20 83% 75.77 0.0
06 16:35 NW 13 16.09 Mostly Cloudy BKN021 23 20 83% 75.77 0.0
06 16:15 NW 15 16.09 Overcast OVC021 23 20 83% 75.74 0.0
06 15:55 NW 15 G 24 16.09 Overcast OVC019 24 21 83% 24 75.74 0.0
06 15:35 NW 9 14.48 Partly Cloudy SCT018 26 23 84% 28 75.74 0.0
06 15:15 W 7 14.48 Fair CLR 26 23 84% 28 75.74 0.0
06 14:55 Calm 14.48 Fair CLR 25 22 83% 26 75.77 0.0
06 14:35 Calm 14.48 Fair CLR 24 21 83% 24 75.74 0.0
06 14:15 NE 6 12.87 Fair CLR 23 21 89% 75.77 0.0
06 13:55 NE 9 11.27 Fair CLR 21 20 94% 75.77 0.0
06 13:35 NE 13 9.66 Fog/Mist FEW008 20 20 100% 75.79 0.0
06 13:15 N 13 9.66 Fog/Mist BKN008 20 19 94% 75.84 0.0
06 12:55 N 11 9.66 Fog/Mist BKN009 19 19 100% 75.9 0.0 0.1
06 12:35 NW 11 11.27 Partly Cloudy SCT011 20 19 94% 75.95 0.0
06 12:15 NW 15 G 26 8.05 Light Rain Fog/Mist FEW012 20 20 100% 75.95 0.0
06 11:55 NW 13 G 24 3.22 Rain Fog/Mist FEW014 21 21 100% 75.95 0.0 0.2
06 11:35 NW 17 4.02 Light Rain Fog/Mist SCT014 23 23 100% 75.92 0.0
06 11:15 SW 9 9.66 Fog/Mist SCT015 25 24 94% 26 75.9 0.0
06 10:55 Vrbl 6 9.66 Fog/Mist FEW014 26 24 89% 28 75.84 0.0
06 10:35 Calm 6.44 Light Rain Fog/Mist SCT016 25 25 100% 25 75.82 0.0
06 10:15 S 9 9.66 Light Rain Fog/Mist BKN016 25 24 94% 26 75.82 0.0
06 09:55 S 9 9.66 Fog/Mist FEW013 25 24 94% 26 75.82 0.0
06 09:35 S 7 9.66 Fog/Mist FEW012 25 24 94% 26 75.79 0.0
06 09:15 Vrbl 6 9.66 Fog/Mist FEW015 25 24 94% 26 75.77 0.0
06 08:55 Calm 8.05 Fog/Mist SCT015 24 24 100% 23 75.77 0.0
06 08:15 Calm 6.44 Fog/Mist BKN015 BKN020 23 23 100% 75.77 0.0
06 07:55 Calm 6.44 Fog/Mist SCT015 SCT022 23 23 100% 75.77 0.0
06 07:35 Calm 4.83 Fog/Mist BKN016 BKN023 BKN028 23 23 100% 75.77 0.0
06 07:15 Calm 4.02 Fog/Mist FEW023 SCT029 22 22 100% 75.74 0.0
06 06:55 Calm 4.83 Fog/Mist SCT018 SCT024 SCT028 22 22 100% 75.72 0.0
06 06:35 Calm 4.83 Fog/Mist BKN018 BKN027 BKN032 22 22 100% 75.72 0.0
06 06:15 Calm 8.05 Fog/Mist BKN018 BKN026 OVC033 22 22 100% 75.69 0.0
06 05:55 Calm 8.05 Fog/Mist BKN019 OVC029 22 22 100% 75.69 0.0
06 05:35 Calm 8.05 Fog/Mist BKN019 BKN036 BKN048 22 22 100% 75.67 0.0
06 05:15 Calm 8.05 Fog/Mist SCT018 BKN024 OVC043 23 23 100% 75.67 0.0
06 04:55 Calm 8.05 Fog/Mist FEW016 SCT023 BKN039 22 22 100% 75.67 0.0
06 04:35 Calm 8.05 Fog/Mist BKN016 BKN022 BKN028 23 23 100% 75.67 0.0
06 04:15 Calm 9.66 Fog/Mist SCT018 SCT023 BKN030 23 23 100% 75.64 0.0
06 03:55 S 7 9.66 Fog/Mist FEW020 SCT025 OVC031 23 23 100% 75.67 0.0
06 03:35 SE 6 11.27 Overcast BKN019 OVC025 23 23 100% 75.67 0.0
06 03:15 SE 7 11.27 Overcast BKN021 OVC027 23 23 100% 75.67 0.0
06 02:55 SE 7 11.27 Overcast OVC021 23 23 100% 75.67 0.0
06 02:35 SE 7 11.27 Partly Cloudy SCT020 SCT025 23 23 100% 75.67 0.0
06 02:15 SE 7 11.27 Fair CLR 23 23 100% 75.67 0.0
06 01:55 SE 9 11.27 Fair CLR 23 23 100% 75.67 0.0
06 01:35 SE 13 12.87 Mostly Cloudy BKN047 23 23 100% 75.67 0.0
06 01:15 SE 13 12.87 Overcast OVC047 24 24 100% 23 75.67 0.0
06 00:55 SE 13 14.48 Overcast OVC046 24 24 100% 23 75.67 0.0
06 00:35 SE 15 14.48 Overcast OVC046 24 24 100% 23 75.67 0.0
06 00:15 S 13 14.48 Overcast OVC046 24 24 100% 23 75.67 0.0
05 23:55 SE 17 14.48 Overcast OVC045 24 24 100% 23 75.64 0.0
05 23:35 SE 11 16.09 Overcast OVC044 24 24 100% 23 75.67 0.0
05 23:15 SE 11 16.09 Mostly Cloudy BKN044 24 23 94% 23 75.64 0.0
05 22:55 SE 9 16.09 Overcast FEW026 OVC044 24 23 94% 23 75.64 0.0
05 22:35 SE 7 16.09 Overcast BKN025 OVC043 24 23 94% 23 75.62 0.0
05 22:15 Calm 9.66 Fog/Mist BKN027 OVC040 24 23 94% 23 75.62 0.0
05 21:55 S 7 16.09 Overcast SCT028 OVC040 24 23 94% 23 75.59 0.0
05 21:35 Calm 16.09 Partly Cloudy SCT039 23 22 94% 75.57 0.0
05 21:15 Calm 4.02 Fog/Mist CLR 24 22 89% 24 75.54 0.0
05 20:55 Calm 16.09 Fair CLR 25 22 83% 26 75.54 0.0
05 20:35 S 7 16.09 Fair CLR 25 22 83% 26 75.51 0.0
05 20:15 S 11 G 20 16.09 Fair CLR 26 22 79% 28 75.46 0.0
05 19:55 S 13 G 24 16.09 Fair CLR 26 22 79% 28 75.46 0.0
05 19:35 S 13 16.09 Fair CLR 27 22 74% 29 75.46 0.0
05 19:15 Vrbl 9 16.09 Fair CLR 27 22 74% 29 75.44 0.0
05 18:55 S 15 16.09 Fair CLR 27 22 74% 29 75.41 0.0
05 18:35 S 17 16.09 Fair CLR 28 22 70% 31 75.44 0.0
05 18:15 S 13 16.09 Fair CLR 28 22 70% 31 75.41 0.0
05 17:55 S 19 G 31 16.09 Fair CLR 29 22 66% 32 75.41 0.0
05 17:35 S 24 G 35 16.09 Fair CLR 29 22 66% 32 75.44 0.0
05 17:15 S 17 G 30 16.09 Fair CLR 29 22 66% 32 75.44 0.0
05 16:55 S 22 16.09 Fair CLR 30 22 62% 33 75.44 0.0
05 16:35 S 22 G 33 16.09 Fair CLR 29 22 66% 32 75.46 0.0
05 16:15 S 17 G 30 16.09 Fair CLR 29 22 66% 32 75.44 0.0
05 15:55 S 17 G 30 16.09 Fair CLR 29 22 66% 32 75.49 0.0
05 15:35 S 20 G 37 16.09 Fair CLR 29 22 66% 32 75.51 0.0
05 15:15 S 17 G 26 16.09 Fair CLR 29 23 70% 33 75.54 0.0
05 14:55 S 20 16.09 Fair CLR 29 23 70% 33 75.54 0.0
05 14:35 S 19 G 33 16.09 Fair CLR 29 23 70% 33 75.57 0.0
05 14:15 S 19 16.09 Fair CLR 28 23 74% 31 75.57 0.0
05 13:55 S 22 G 35 16.09 Fair CLR 28 22 70% 31 75.57 0.0
05 13:35 S 22 G 37 16.09 Fair CLR 28 22 70% 31 75.59 0.0
05 13:15 S 22 G 33 16.09 A Few Clouds FEW025 27 22 74% 29 75.62 0.0
05 12:55 S 22 G 31 16.09 A Few Clouds FEW024 27 22 74% 29 75.62 0.0
05 12:35 S 20 16.09 Fair CLR 27 22 74% 29 75.62 0.0
05 12:15 S 17 G 33 16.09 A Few Clouds FEW020 26 22 79% 28 75.64 0.0
05 11:55 S 17 G 28 16.09 Fair CLR 26 22 79% 28 75.67 0.0
05 11:35 S 11 G 22 16.09 A Few Clouds FEW019 25 22 83% 26 75.67 0.0
05 11:15 S 15 16.09 A Few Clouds FEW018 25 22 83% 26 75.67 0.0
05 10:35 S 13 G 24 16.09 Partly Cloudy SCT017 24 22 89% 24 75.67 0.0
05 10:15 S 15 G 26 16.09 Partly Cloudy SCT015 24 22 89% 24 75.64 0.0
05 09:55 Vrbl 11 G 24 16.09 Mostly Cloudy BKN016 23 21 89% 75.64 0.0
05 09:35 S 13 16.09 Mostly Cloudy BKN016 23 21 89% 75.67 0.0
05 09:15 S 15 16.09 Mostly Cloudy BKN015 23 21 89% 75.64 0.0
05 08:55 S 13 16.09 Partly Cloudy SCT016 SCT020 23 21 89% 75.64 0.0
05 08:35 S 9 16.09 Mostly Cloudy BKN017 BKN021 21 21 100% 75.64 0.0
05 08:15 S 9 16.09 Mostly Cloudy SCT014 BKN021 21 21 100% 75.64 0.0
05 07:55 S 11 16.09 Mostly Cloudy SCT014 BKN020 BKN026 21 21 100% 75.64 0.0
05 07:35 S 9 16.09 Mostly Cloudy BKN015 BKN019 BKN025 20 20 100% 75.64 0.0
05 07:15 S 9 16.09 Overcast BKN014 OVC025 20 20 100% 75.59 0.0
05 06:55 S 11 16.09 Overcast FEW014 BKN023 OVC028 20 20 100% 75.57 0.0
05 06:35 S 9 16.09 Overcast BKN016 BKN022 OVC026 20 20 100% 75.59 0.0
05 06:15 S 11 16.09 Overcast BKN016 OVC022 20 20 100% 75.59 0.0
05 05:35 S 13 16.09 Overcast OVC018 19 19 100% 75.57 0.0
05 05:15 S 13 16.09 Overcast BKN016 OVC021 19 19 100% 75.57 0.0
05 04:55 S 11 16.09 Overcast OVC020 19 19 100% 75.57 0.0
05 04:35 S 11 16.09 Overcast OVC017 19 19 100% 75.57 0.0
05 04:15 SE 11 16.09 Overcast OVC017 19 19 100% 75.59 0.0
05 03:55 S 9 16.09 Overcast OVC018 19 19 100% 75.62 0.0
05 03:35 S 9 16.09 Overcast OVC018 19 19 100% 75.62 0.0
05 03:15 S 9 16.09 Overcast OVC019 19 19 100% 75.64 0.0
05 02:55 S 7 16.09 Overcast OVC019 19 19 100% 75.67 0.0
05 02:35 S 7 16.09 Mostly Cloudy BKN021 19 19 100% 75.67 0.0
05 02:15 S 9 16.09 Fair CLR 19 19 100% 75.69 0.0
05 01:55 S 11 16.09 Fair CLR 19 19 100% 75.69 0.0
05 01:35 S 11 16.09 A Few Clouds FEW029 19 19 100% 75.72 0.0
05 01:15 S 9 16.09 Fair CLR 20 18 88% 75.72 0.0
05 00:55 Vrbl 11 16.09 Fair CLR 20 18 88% 75.72 0.0
05 00:35 S 11 16.09 Fair CLR 20 18 88% 75.72 0.0
05 00:15 S 15 16.09 Fair CLR 20 18 88% 75.72 0.0
04 23:55 S 13 16.09 Fair CLR 20 18 88% 75.72 0.0
04 23:35 S 15 16.09 Fair CLR 21 18 83% 75.72 0.0
04 23:15 S 15 G 26 16.09 Fair CLR 21 18 83% 75.74 0.0
04 22:55 SE 15 16.09 Fair CLR 21 18 83% 75.72 0.0
04 22:35 S 15 16.09 Fair CLR 21 18 83% 75.74 0.0
04 22:15 SE 13 G 22 16.09 Fair CLR 21 18 83% 75.72 0.0
04 21:55 SE 11 16.09 Fair CLR 21 18 83% 75.74 0.0
04 21:35 SE 11 16.09 Fair CLR 22 18 78% 75.72 0.0
04 21:15 Vrbl 11 16.09 Fair CLR 22 18 78% 75.72 0.0
04 20:55 S 13 16.09 Fair CLR 22 18 78% 75.72 0.0
04 20:35 SE 17 16.09 Partly Cloudy SCT046 23 18 74% 75.69 0.0
04 20:15 SE 11 16.09 Partly Cloudy SCT046 23 18 74% 75.69 0.0
04 19:55 SE 9 16.09 Fair CLR 23 17 69% 75.67 0.0
04 19:35 S 11 16.09 Fair CLR 24 17 65% 25 75.67 0.0
04 19:15 S 7 16.09 Fair CLR 25 17 61% 26 75.69 0.0
04 18:55 S 13 16.09 Fair CLR 25 17 61% 26 75.69 0.0
04 18:35 S 13 16.09 Fair CLR 25 17 61% 26 75.72 0.0
04 18:15 S 17 16.09 Fair CLR 26 16 54% 27 75.72 0.0
04 17:55 S 19 16.09 Fair CLR 26 16 54% 27 75.74 0.0
04 17:35 S 19 2.41 Fair with Haze CLR 26 16 54% 27 75.74 0.0
04 17:15 S 19 G 28 16.09 Fair CLR 27 16 51% 27 75.77 0.0
04 16:55 S 19 G 31 16.09 Fair CLR 27 15 48% 27 75.77 0.0
04 16:35 S 17 G 33 16.09 Fair CLR 27 15 48% 27 75.79 0.0
04 16:15 S 22 16.09 Fair CLR 27 15 48% 27 75.82 0.0
04 15:55 S 13 G 33 16.09 Fair CLR 27 15 48% 27 75.84 0.0
04 15:35 S 22 16.09 Fair CLR 27 15 48% 27 75.87 0.0
04 15:15 S 17 G 30 16.09 Fair CLR 27 14 45% 27 75.9 0.0
04 14:55 SW 15 16.09 Fair CLR 27 15 48% 27 75.95 0.0
04 14:35 S 20 16.09 Fair CLR 27 14 45% 27 75.95 0.0
04 14:15 S 17 G 28 16.09 Fair CLR 27 14 45% 27 75.97 0.0
04 13:55 S 19 G 30 16.09 Fair CLR 26 14 48% 26 76 0.0
04 13:35 S 17 G 30 16.09 Fair CLR 26 13 45% 26 76.02 0.0
04 13:15 S 17 G 30 16.09 Fair CLR 26 13 45% 26 76.05 0.0
04 12:55 S 19 G 30 16.09 Fair CLR 25 12 44% 26 76.07 0.0
04 12:35 S 19 G 31 16.09 Fair CLR 25 12 44% 26 76.1 0.0
04 12:15 SE 20 16.09 Fair CLR 25 12 44% 26 76.1 0.0
04 11:55 S 15 G 31 16.09 Fair CLR 24 11 44% 25 76.12 0.0
04 11:35 S 22 16.09 Fair CLR 24 11 44% 25 76.12 0.0
04 11:15 S 22 16.09 Fair CLR 23 12 50% 76.15 0.0
04 10:55 S 22 16.09 Fair CLR 23 12 50% 76.15 0.0
04 10:35 S 19 16.09 Fair CLR 22 13 57% 76.2 0.0
04 10:15 S 17 G 26 16.09 Fair CLR 21 13 60% 76.2 0.0
04 09:55 S 17 G 28 16.09 Fair CLR 21 13 60% 76.2 0.0
04 09:35 S 13 G 24 16.09 Fair CLR 20 13 64% 76.2 0.0
04 09:15 S 13 16.09 Fair CLR 19 13 68% 76.2 0.0
04 08:55 S 13 16.09 Fair CLR 18 13 73% 76.23 0.0
04 08:35 S 9 16.09 Fair CLR 17 13 77% 76.2 0.0
04 08:15 SE 9 16.09 Fair CLR 16 13 83% 76.2 0.0
04 07:55 SE 6 16.09 Fair CLR 15 13 88% 76.2 0.0
04 07:35 Calm 16.09 Fair CLR 14 12 88% 76.2 0.0
Date Time (cdt) Wind (kph) Vis. (km) Weather Sky Cond. Air Dwpt Max. Min. Relative Humidity Wind Chill (°C) Heat Index (°C) altimeter (cm) sea level (mb) 1 hr 3 hr 6 hr
6 hour
Temperature (ºC) Pressure Precipitation (cm)